サイパン島 の空港の天気 - METARとTAF

サイパン国際空港 ( PGSN / SPN ) - 北マリアナ諸島 サイパン島
飛行場実況気象(Metar)
観測時間05/25 19:54 ChST (05/25 09:54 UTC)
風向・風速東 3m/s
視程10km以上
天気現象
少しの雲 雲底高度 670m
全天の4割程度の雲 雲底高度 1980m
気温28.3℃
湿度77%
気圧1014.2hPa
METARPGSN 250954Z 09006KT 10SM FEW022 SCT065 28/24 A2989 RMK AO2 SLP142 T02830239 $
過去の天気等 Google飛行場航空写真 Wunderground天気予報

過去48時間のMETAR

飛行場予報(TAF)
発表時間: 5/25 15:20 ChST (5/25 05:20 UTC)
予報対象時間: 25日16時 ChST ~ 26日16時 ChST
風向・風速東 5m/s
視程10km以上
少しの雲 雲底高度 730m
TAF PGSN 250520Z 2506/2606 10010KT P6SM FEW024